Coral, Florida
Current Conditions -  °F | °C
As of 10:53 PM on Sunday 23 Nov 2014 (Local Time) from KMIA Reporting Station
Broken Clouds Broken Clouds  
Wind Chill: 80°   Ceiling: 25000
Heat Index: 85°   Visibility: 10mi
Dew Point: 74°   Wind: 8mph
Humidity: 81%   Direction: 140°SE
Pressure: 29.96"   Gusts: 17mph
Location:  25.7527°N, 80.2344°W
Report Text: KMIA 240353Z 14007G15KT 10SM FEW015 SCT045 SCT150 BKN250 27/23 A2996 RMK AO2 SLP147 T02670233
Loading
Personal Weather Stations






























Interactive Weather Map New forecast layout! Learn more

10-Day Weather Forecast

Advertisements
Track Severe Weather on mobile